createdAt,value
2023-03-26T00:01:02.069Z,1.50
2023-03-26T00:03:30.015Z,1.45
2023-03-26T00:06:07.516Z,2.25
2023-03-26T00:08:35.826Z,2.60
2023-03-26T00:11:04.793Z,1.77
2023-03-26T00:13:32.172Z,1.77
2023-03-26T00:15:59.735Z,1.30
2023-03-26T00:18:30.904Z,1.95
2023-03-26T00:21:03.643Z,1.47
2023-03-26T00:23:31.419Z,2.17
2023-03-26T00:25:58.159Z,0.85
2023-03-26T00:28:26.396Z,1.75
2023-03-26T00:31:04.846Z,1.05
2023-03-26T00:33:32.407Z,1.33
2023-03-26T00:36:03.191Z,1.27
2023-03-26T00:38:31.010Z,0.93
2023-03-26T00:41:05.959Z,1.40
2023-03-26T00:43:35.085Z,1.10
2023-03-26T00:46:06.369Z,0.70
2023-03-26T00:48:44.362Z,1.42
2023-03-26T00:51:15.550Z,1.20
2023-03-26T00:53:44.238Z,1.08
2023-03-26T00:56:11.953Z,0.90
2023-03-26T00:58:38.961Z,1.27
2023-03-26T01:01:08.653Z,1.55
2023-03-26T01:03:38.423Z,0.77
2023-03-26T01:06:08.034Z,0.68
2023-03-26T01:08:38.361Z,0.70
2023-03-26T01:11:14.178Z,0.90
2023-03-26T01:13:50.603Z,1.00
2023-03-26T01:16:24.070Z,1.30
2023-03-26T01:18:52.664Z,0.80
2023-03-26T01:21:23.382Z,1.00
2023-03-26T01:24:16.224Z,0.97
2023-03-26T01:27:04.376Z,1.73
2023-03-26T01:29:43.056Z,1.02
2023-03-26T01:32:37.667Z,0.52
2023-03-26T01:35:19.597Z,0.98
2023-03-26T01:37:52.428Z,1.13
2023-03-26T01:40:31.762Z,1.25
2023-03-26T01:43:17.898Z,1.40
2023-03-26T01:45:47.751Z,1.52
2023-03-26T01:48:14.540Z,1.30
2023-03-26T01:50:41.204Z,0.90
2023-03-26T01:53:09.541Z,1.13
2023-03-26T01:56:06.207Z,1.20
2023-03-26T01:58:55.686Z,1.23
2023-03-26T02:01:30.295Z,0.82
2023-03-26T02:04:22.432Z,1.63
2023-03-26T02:07:13.436Z,0.65
2023-03-26T02:09:47.170Z,1.15
2023-03-26T02:12:14.923Z,0.90
2023-03-26T02:14:42.884Z,1.27
2023-03-26T02:17:10.865Z,1.37
2023-03-26T02:19:41.902Z,2.13
2023-03-26T02:22:11.332Z,1.45
2023-03-26T02:24:41.619Z,1.00
2023-03-26T02:27:08.703Z,1.00
2023-03-26T02:29:39.761Z,2.20
2023-03-26T02:32:15.106Z,0.77
2023-03-26T02:34:42.390Z,0.90
2023-03-26T02:37:10.007Z,0.82
2023-03-26T02:39:36.664Z,1.52
2023-03-26T02:42:03.275Z,1.40
2023-03-26T02:44:29.804Z,1.25
2023-03-26T02:46:56.313Z,0.60
2023-03-26T02:49:22.781Z,1.65
2023-03-26T02:51:49.192Z,1.10
2023-03-26T02:54:16.742Z,0.80
2023-03-26T02:56:43.385Z,1.40
2023-03-26T02:59:10.745Z,1.00
2023-03-26T03:01:42.672Z,1.48
2023-03-26T03:04:10.578Z,1.20
2023-03-26T03:06:38.355Z,1.70
2023-03-26T03:09:06.118Z,1.50
2023-03-26T03:11:32.532Z,1.90
2023-03-26T03:13:58.949Z,1.75
2023-03-26T03:16:25.905Z,2.35
2023-03-26T03:18:58.036Z,1.80
2023-03-26T03:21:27.262Z,1.63
2023-03-26T03:24:00.043Z,5.22
2023-03-26T03:26:27.862Z,3.30
2023-03-26T03:28:57.529Z,3.38
2023-03-26T03:31:26.430Z,3.20
2023-03-26T03:33:53.247Z,3.47
2023-03-26T03:36:24.285Z,4.57
2023-03-26T03:38:51.203Z,3.05
2023-03-26T03:41:18.563Z,3.65
2023-03-26T03:43:45.615Z,3.80
2023-03-26T03:46:12.121Z,5.32
2023-03-26T03:48:39.411Z,4.45
2023-03-26T03:51:06.883Z,3.72
2023-03-26T03:53:37.258Z,3.63
2023-03-26T03:56:04.797Z,4.77
2023-03-26T03:58:31.325Z,4.13
2023-03-26T04:01:04.647Z,3.90
2023-03-26T04:03:33.442Z,5.97
2023-03-26T04:06:01.395Z,4.05
2023-03-26T04:08:27.947Z,4.73
2023-03-26T04:10:54.346Z,4.55
2023-03-26T04:13:21.310Z,5.60
2023-03-26T04:15:47.772Z,4.80
2023-03-26T04:18:14.376Z,4.38
2023-03-26T04:20:46.782Z,4.37
2023-03-26T04:23:14.174Z,5.45
2023-03-26T04:25:49.746Z,4.75
2023-03-26T04:28:27.549Z,4.72
2023-03-26T04:30:57.094Z,5.50
2023-03-26T04:33:24.927Z,5.27
2023-03-26T04:35:52.506Z,4.78
2023-03-26T04:38:19.591Z,5.45
2023-03-26T04:40:49.005Z,4.15
2023-03-26T04:43:18.051Z,5.07
2023-03-26T04:45:45.906Z,4.17
2023-03-26T04:48:14.606Z,5.20
2023-03-26T04:50:44.289Z,4.85
2023-03-26T04:53:17.038Z,5.25
2023-03-26T04:55:59.867Z,5.80
2023-03-26T04:58:32.602Z,5.33
2023-03-26T05:01:01.187Z,6.38
2023-03-26T05:03:40.656Z,5.35
2023-03-26T05:06:09.451Z,5.75
2023-03-26T05:08:35.944Z,5.05
2023-03-26T05:11:02.904Z,5.37
2023-03-26T05:13:29.776Z,4.88
2023-03-26T05:15:56.360Z,6.43
2023-03-26T05:18:22.883Z,4.40
2023-03-26T05:20:49.364Z,5.70
2023-03-26T05:23:15.983Z,5.83
2023-03-26T05:25:42.589Z,6.68
2023-03-26T05:28:10.552Z,4.75
2023-03-26T05:30:37.595Z,6.15
2023-03-26T05:33:04.732Z,4.95
2023-03-26T05:35:31.423Z,5.57
2023-03-26T05:37:58.188Z,5.20
2023-03-26T05:40:24.705Z,6.43
2023-03-26T05:42:51.443Z,6.47
2023-03-26T05:45:18.116Z,5.65
2023-03-26T05:47:44.647Z,5.67
2023-03-26T05:50:11.612Z,5.05
2023-03-26T05:52:38.564Z,4.97
2023-03-26T05:55:06.496Z,5.53
2023-03-26T05:57:33.228Z,5.93
2023-03-26T05:59:59.854Z,5.40
2023-03-26T06:02:26.416Z,5.53
2023-03-26T06:04:52.933Z,6.72
2023-03-26T06:07:19.990Z,6.00
2023-03-26T06:09:46.701Z,6.30
2023-03-26T06:12:13.990Z,4.87
2023-03-26T06:14:42.818Z,6.30
2023-03-26T06:17:10.317Z,5.03
2023-03-26T06:19:37.303Z,5.70
2023-03-26T06:22:05.704Z,5.63
2023-03-26T06:24:32.908Z,5.13
2023-03-26T06:26:59.365Z,5.18
2023-03-26T06:29:26.044Z,4.63
2023-03-26T06:31:52.949Z,6.03
2023-03-26T06:34:19.611Z,4.97
2023-03-26T06:36:46.166Z,5.63
2023-03-26T06:39:14.441Z,5.65
2023-03-26T06:43:06.487Z,5.85
2023-03-26T06:45:15.366Z,4.30
2023-03-26T06:47:41.958Z,6.28
2023-03-26T06:50:11.463Z,4.60
2023-03-26T06:52:38.213Z,4.50
2023-03-26T06:55:08.528Z,4.63
2023-03-26T06:57:35.570Z,4.38
2023-03-26T07:00:02.129Z,4.15
2023-03-26T07:02:36.282Z,3.93
2023-03-26T07:05:03.272Z,4.35
2023-03-26T07:07:46.721Z,4.45
2023-03-26T07:10:14.358Z,4.07
2023-03-26T07:12:42.376Z,4.63
2023-03-26T07:15:10.223Z,3.57
2023-03-26T07:17:37.021Z,4.65
2023-03-26T07:20:05.616Z,4.90
2023-03-26T07:22:32.342Z,3.90
2023-03-26T07:24:59.148Z,4.72
2023-03-26T07:27:50.662Z,4.37
2023-03-26T07:30:38.921Z,5.10
2023-03-26T07:33:14.284Z,5.43
2023-03-26T07:35:43.925Z,6.00
2023-03-26T07:38:22.881Z,5.47
2023-03-26T07:41:06.977Z,6.20
2023-03-26T07:43:39.405Z,6.13
2023-03-26T07:46:10.840Z,5.00
2023-03-26T07:48:42.375Z,5.60
2023-03-26T07:51:09.870Z,5.75
2023-03-26T07:53:36.877Z,6.67
2023-03-26T07:56:31.003Z,6.90
2023-03-26T07:59:25.341Z,6.95
2023-03-26T08:02:29.249Z,6.32
2023-03-26T08:05:01.287Z,7.45
2023-03-26T08:07:42.355Z,6.83
2023-03-26T08:11:07.179Z,7.00
2023-03-26T08:13:34.580Z,6.30
2023-03-26T08:16:26.889Z,6.40
2023-03-26T08:19:13.873Z,6.35
2023-03-26T08:21:59.923Z,6.03
2023-03-26T08:24:46.373Z,5.70
2023-03-26T08:27:25.050Z,6.00
2023-03-26T08:30:07.600Z,6.45
2023-03-26T08:32:34.706Z,6.60
2023-03-26T08:35:01.242Z,6.70
2023-03-26T08:37:29.182Z,6.40
2023-03-26T08:39:55.819Z,6.95
2023-03-26T08:42:59.858Z,6.63
2023-03-26T08:45:51.393Z,5.35
2023-03-26T08:48:50.955Z,4.87
2023-03-26T08:51:54.413Z,5.78
2023-03-26T08:54:42.061Z,5.90
2023-03-26T08:57:39.255Z,7.47
2023-03-26T09:00:27.292Z,6.78
2023-03-26T09:03:52.684Z,6.63
2023-03-26T09:06:48.398Z,7.32
2023-03-26T09:09:39.901Z,7.88
2023-03-26T09:12:58.966Z,7.53
2023-03-26T09:15:43.607Z,6.95
2023-03-26T09:18:19.138Z,5.40
2023-03-26T09:21:06.799Z,7.97
2023-03-26T09:23:58.182Z,5.95
2023-03-26T09:26:51.420Z,6.25
2023-03-26T09:29:20.971Z,6.07
2023-03-26T09:32:13.130Z,7.03
2023-03-26T09:35:03.627Z,6.38
2023-03-26T09:37:57.174Z,6.40
2023-03-26T09:40:34.903Z,6.00
2023-03-26T09:43:29.411Z,6.78
2023-03-26T09:46:12.016Z,5.60
2023-03-26T09:49:03.770Z,5.13
2023-03-26T09:51:43.555Z,4.55
2023-03-26T09:54:30.357Z,5.47
2023-03-26T09:57:22.160Z,5.43
2023-03-26T10:00:13.673Z,4.87
2023-03-26T10:02:46.254Z,3.28
2023-03-26T10:05:21.608Z,4.93
2023-03-26T10:08:28.249Z,4.85
2023-03-26T10:11:34.627Z,4.65
2023-03-26T10:14:07.231Z,3.50
2023-03-26T10:16:55.605Z,3.47
2023-03-26T10:19:31.295Z,3.40
2023-03-26T10:22:27.709Z,3.88
2023-03-26T10:25:13.595Z,3.70
2023-03-26T10:27:51.087Z,3.87
2023-03-26T10:30:40.678Z,3.33
2023-03-26T10:33:25.453Z,3.70
2023-03-26T10:36:26.801Z,3.08
2023-03-26T10:39:07.434Z,2.20
2023-03-26T10:41:49.361Z,2.30
2023-03-26T10:44:50.000Z,2.60
2023-03-26T10:47:22.603Z,2.90
2023-03-26T10:50:02.205Z,2.45
2023-03-26T10:52:39.089Z,2.22
2023-03-26T10:55:37.935Z,2.60
2023-03-26T10:58:48.319Z,2.20
2023-03-26T11:01:23.811Z,3.03
2023-03-26T11:03:56.589Z,1.77
2023-03-26T11:06:51.111Z,2.90
2023-03-26T11:09:33.693Z,1.70
2023-03-26T11:12:28.880Z,1.85
2023-03-26T11:15:12.406Z,2.60
2023-03-26T11:18:16.760Z,1.90
2023-03-26T11:21:18.839Z,1.70
2023-03-26T11:24:04.459Z,1.47
2023-03-26T11:26:55.510Z,1.67
2023-03-26T11:29:32.404Z,1.60
2023-03-26T11:32:10.632Z,1.60
2023-03-26T11:34:47.026Z,1.63
2023-03-26T11:37:34.629Z,1.63
2023-03-26T11:40:06.511Z,1.48
2023-03-26T11:42:33.232Z,1.38
2023-03-26T11:45:04.691Z,1.15
2023-03-26T11:47:42.835Z,1.30
2023-03-26T11:50:18.208Z,0.93
2023-03-26T11:52:51.050Z,0.80
2023-03-26T11:55:25.008Z,1.27
2023-03-26T11:57:55.653Z,1.42
2023-03-26T12:00:27.508Z,1.48
2023-03-26T12:03:00.376Z,2.17
2023-03-26T12:05:36.649Z,1.20
2023-03-26T12:08:17.755Z,1.23
2023-03-26T12:10:44.742Z,1.83
2023-03-26T12:13:39.224Z,1.30
2023-03-26T12:16:18.528Z,1.80
2023-03-26T12:18:56.907Z,1.88
2023-03-26T12:21:23.606Z,2.25
2023-03-26T12:23:59.170Z,2.55
2023-03-26T12:26:48.876Z,0.98
2023-03-26T12:29:18.826Z,0.83
2023-03-26T12:31:54.520Z,1.00
2023-03-26T12:34:23.637Z,0.93
2023-03-26T12:36:55.962Z,0.52
2023-03-26T12:40:07.432Z,1.00
2023-03-26T12:44:50.880Z,1.03
2023-03-26T12:45:31.430Z,0.85
2023-03-26T12:48:03.565Z,1.65
2023-03-26T12:50:43.869Z,0.40
2023-03-26T12:53:48.307Z,0.73
2023-03-26T12:56:42.915Z,0.77
2023-03-26T12:59:09.452Z,0.55
2023-03-26T13:02:07.018Z,0.50
2023-03-26T13:04:37.456Z,1.10
2023-03-26T13:07:19.565Z,0.70
2023-03-26T13:10:20.985Z,0.30
2023-03-26T13:13:00.845Z,0.55
2023-03-26T13:15:43.329Z,1.13
2023-03-26T13:18:22.038Z,0.73
2023-03-26T13:21:28.604Z,0.30
2023-03-26T13:24:28.899Z,0.80
2023-03-26T13:27:07.312Z,0.40
2023-03-26T13:30:07.425Z,0.50
2023-03-26T13:33:11.581Z,1.00
2023-03-26T13:35:41.169Z,0.30
2023-03-26T13:38:20.288Z,0.47
2023-03-26T13:41:08.069Z,0.65
2023-03-26T13:43:56.660Z,0.40
2023-03-26T13:46:38.500Z,0.30
2023-03-26T13:49:08.095Z,0.55
2023-03-26T13:51:49.829Z,0.57
2023-03-26T13:54:26.892Z,0.50
2023-03-26T13:57:16.202Z,0.43
2023-03-26T13:59:53.768Z,0.85
2023-03-26T14:02:31.069Z,0.35
2023-03-26T14:05:06.664Z,0.40
2023-03-26T14:07:41.284Z,0.52
2023-03-26T14:10:21.848Z,0.52
2023-03-26T14:13:20.861Z,0.73
2023-03-26T14:15:56.067Z,0.30
2023-03-26T14:18:33.660Z,0.33
2023-03-26T14:21:00.169Z,0.32
2023-03-26T14:24:04.659Z,0.40
2023-03-26T14:27:03.353Z,1.60
2023-03-26T14:29:58.294Z,0.20
2023-03-26T14:32:36.742Z,0.73
2023-03-26T14:35:30.734Z,0.52
2023-03-26T14:38:12.051Z,0.35
2023-03-26T14:41:17.436Z,0.30
2023-03-26T14:43:46.845Z,0.22
2023-03-26T14:46:37.109Z,0.17
2023-03-26T14:49:43.943Z,0.30
2023-03-26T14:52:45.594Z,0.20
2023-03-26T14:55:27.406Z,0.43
2023-03-26T14:58:37.047Z,0.30
2023-03-26T15:01:22.853Z,0.33
2023-03-26T15:04:27.503Z,0.38
2023-03-26T15:07:02.904Z,1.23
2023-03-26T15:09:51.552Z,0.70
2023-03-26T15:12:36.091Z,0.93
2023-03-26T15:15:35.129Z,0.47
2023-03-26T15:18:39.305Z,0.57
2023-03-26T15:21:44.386Z,0.40
2023-03-26T15:24:31.480Z,0.20
2023-03-26T15:27:16.263Z,1.13
2023-03-26T15:29:42.901Z,0.37
2023-03-26T15:32:40.794Z,0.52
2023-03-26T15:35:25.821Z,0.50
2023-03-26T15:38:13.858Z,0.32
2023-03-26T15:41:00.596Z,0.20
2023-03-26T15:44:22.302Z,0.60
2023-03-26T15:46:56.791Z,0.50
2023-03-26T15:49:50.156Z,0.70
2023-03-26T15:53:01.659Z,0.30
2023-03-26T15:55:43.588Z,0.40
2023-03-26T15:58:21.431Z,0.40
2023-03-26T16:00:57.201Z,1.20
2023-03-26T16:03:56.414Z,0.65
2023-03-26T16:06:51.863Z,0.40
2023-03-26T16:09:31.156Z,0.35
2023-03-26T16:12:00.391Z,0.53
2023-03-26T16:14:36.365Z,0.50
2023-03-26T16:17:06.629Z,0.43
2023-03-26T16:19:48.932Z,0.40
2023-03-26T16:22:42.661Z,0.30
2023-03-26T16:25:32.609Z,0.63
2023-03-26T16:28:21.271Z,0.73
2023-03-26T16:31:23.362Z,0.40
2023-03-26T16:34:20.482Z,0.52
2023-03-26T16:36:51.479Z,0.68
2023-03-26T16:39:23.118Z,0.30
2023-03-26T16:42:06.581Z,0.20
2023-03-26T16:45:00.181Z,0.57
2023-03-26T16:47:43.038Z,0.60
2023-03-26T16:50:39.107Z,0.40
2023-03-26T16:53:29.792Z,0.33
2023-03-26T16:56:02.837Z,0.98
2023-03-26T16:59:00.499Z,0.20
2023-03-26T17:02:18.341Z,1.15
2023-03-26T17:04:48.782Z,0.20
2023-03-26T17:07:29.346Z,0.20
2023-03-26T17:10:18.934Z,0.30
2023-03-26T17:12:57.950Z,0.43
2023-03-26T17:15:34.654Z,0.40
2023-03-26T17:18:21.487Z,0.15
2023-03-26T17:21:10.037Z,0.40
2023-03-26T17:24:15.694Z,0.52
2023-03-26T17:27:24.190Z,0.30
2023-03-26T17:30:05.634Z,0.30
2023-03-26T17:33:00.752Z,0.30
2023-03-26T17:35:39.568Z,0.97
2023-03-26T17:38:18.346Z,0.40
2023-03-26T17:40:52.994Z,0.20
2023-03-26T17:43:41.705Z,0.80
2023-03-26T17:46:25.690Z,0.40
2023-03-26T17:48:58.337Z,0.17
2023-03-26T17:51:58.105Z,0.73
2023-03-26T17:54:32.790Z,0.52
2023-03-26T17:57:25.291Z,0.40
2023-03-26T17:59:59.748Z,0.22
2023-03-26T18:02:42.155Z,0.87
2023-03-26T18:05:12.635Z,0.30
2023-03-26T18:07:54.334Z,0.38
2023-03-26T18:10:53.684Z,0.40
2023-03-26T18:13:48.479Z,0.77
2023-03-26T18:16:18.170Z,0.50
2023-03-26T18:18:54.715Z,0.30
2023-03-26T18:21:27.805Z,0.80
2023-03-26T18:23:59.556Z,0.30
2023-03-26T18:26:36.184Z,0.30
2023-03-26T18:29:20.470Z,0.30
2023-03-26T18:31:53.299Z,0.50
2023-03-26T18:34:20.750Z,0.63
2023-03-26T18:37:01.209Z,8.90
2023-03-26T18:39:28.201Z,15.50
2023-03-26T18:41:54.858Z,1.47
2023-03-26T18:44:21.870Z,0.40
2023-03-26T18:46:48.490Z,0.43
2023-03-26T18:49:17.016Z,0.40
2023-03-26T18:51:56.166Z,0.28
2023-03-26T18:54:29.053Z,0.40
2023-03-26T18:56:55.565Z,0.20
2023-03-26T18:59:31.913Z,0.45
2023-03-26T19:02:10.324Z,0.20
2023-03-26T19:04:38.125Z,0.10
2023-03-26T19:07:13.646Z,0.23
2023-03-26T19:09:42.310Z,0.57
2023-03-26T19:12:33.177Z,0.50
2023-03-26T19:15:07.875Z,0.52
2023-03-26T19:17:46.737Z,0.20
2023-03-26T19:20:19.497Z,0.60
2023-03-26T19:22:47.704Z,0.13
2023-03-26T19:25:22.611Z,0.32
2023-03-26T19:27:50.787Z,1.05
2023-03-26T19:30:31.103Z,0.57
2023-03-26T19:33:12.998Z,0.60
2023-03-26T19:35:42.255Z,0.73
2023-03-26T19:38:25.558Z,0.57
2023-03-26T19:40:54.985Z,0.22
2023-03-26T19:43:22.330Z,0.38
2023-03-26T19:46:00.581Z,0.23
2023-03-26T19:48:46.093Z,0.17
2023-03-26T19:51:19.960Z,0.80
2023-03-26T19:53:53.834Z,0.38
2023-03-26T19:56:22.000Z,0.55
2023-03-26T19:58:50.137Z,0.77
2023-03-26T20:01:26.779Z,0.20
2023-03-26T20:04:00.274Z,0.45
2023-03-26T20:06:42.285Z,0.30
2023-03-26T20:09:11.497Z,0.30
2023-03-26T20:11:39.528Z,0.40
2023-03-26T20:14:24.151Z,0.17
2023-03-26T20:16:50.851Z,0.47
2023-03-26T20:19:17.756Z,0.30
2023-03-26T20:21:45.904Z,0.43
2023-03-26T20:24:16.435Z,0.20
2023-03-26T20:26:45.149Z,0.30
2023-03-26T20:29:13.406Z,0.20
2023-03-26T20:31:44.048Z,0.35
2023-03-26T20:34:20.081Z,0.35
2023-03-26T20:36:47.293Z,0.27
2023-03-26T20:39:14.429Z,0.32
2023-03-26T20:41:45.502Z,0.22
2023-03-26T20:44:15.360Z,0.20
2023-03-26T20:46:43.324Z,0.32
2023-03-26T20:49:10.818Z,0.60
2023-03-26T20:51:38.370Z,0.50
2023-03-26T20:54:23.239Z,0.35
2023-03-26T20:56:50.815Z,0.50
2023-03-26T20:59:21.686Z,1.05
2023-03-26T21:01:49.908Z,0.20
2023-03-26T21:04:17.488Z,0.30
2023-03-26T21:06:44.302Z,0.10
2023-03-26T21:09:17.715Z,0.10
2023-03-26T21:11:44.388Z,0.10
2023-03-26T21:14:27.668Z,0.23
2023-03-26T21:16:54.523Z,0.20
2023-03-26T21:19:21.406Z,0.50
2023-03-26T21:22:07.289Z,0.40
2023-03-26T21:24:45.876Z,0.57
2023-03-26T21:27:19.432Z,0.10
2023-03-26T21:29:46.673Z,0.15
2023-03-26T21:32:14.353Z,0.47
2023-03-26T21:34:47.888Z,0.10
2023-03-26T21:37:22.844Z,0.65
2023-03-26T21:39:49.608Z,0.47
2023-03-26T21:42:16.524Z,0.20
2023-03-26T21:44:44.090Z,0.30
2023-03-26T21:47:11.244Z,0.20
2023-03-26T21:49:38.593Z,0.10
2023-03-26T21:52:06.190Z,0.30
2023-03-26T21:54:33.445Z,0.17
2023-03-26T21:57:06.280Z,0.13
2023-03-26T21:59:48.222Z,0.32
2023-03-26T22:02:34.083Z,0.30
2023-03-26T22:05:06.647Z,0.10
2023-03-26T22:07:48.204Z,0.57
2023-03-26T22:10:14.637Z,0.10
2023-03-26T22:12:41.489Z,0.17
2023-03-26T22:15:08.269Z,0.30
2023-03-26T22:17:34.757Z,0.10
2023-03-26T22:20:01.577Z,0.70
2023-03-26T22:22:28.337Z,0.10
2023-03-26T22:24:54.851Z,0.40
2023-03-26T22:27:21.340Z,0.15
2023-03-26T22:29:47.727Z,0.70
2023-03-26T22:32:14.171Z,0.13
2023-03-26T22:34:41.400Z,0.47
2023-03-26T22:37:07.877Z,0.10
2023-03-26T22:39:34.301Z,0.50
2023-03-26T22:42:03.850Z,0.20
2023-03-26T22:44:31.239Z,0.13
2023-03-26T22:46:57.718Z,0.10
2023-03-26T22:49:27.319Z,0.03
2023-03-26T22:51:53.747Z,0.40
2023-03-26T22:54:20.252Z,0.17
2023-03-26T22:56:46.794Z,0.30
2023-03-26T22:59:13.336Z,0.10
2023-03-26T23:01:40.165Z,0.22
2023-03-26T23:04:07.038Z,0.10
2023-03-26T23:06:33.547Z,0.33
2023-03-26T23:08:59.975Z,0.13
2023-03-26T23:11:29.508Z,0.20
2023-03-26T23:13:56.914Z,0.20
2023-03-26T23:16:23.420Z,0.10
2023-03-26T23:18:50.062Z,0.20
2023-03-26T23:21:19.493Z,0.73
2023-03-26T23:23:47.508Z,0.20
2023-03-26T23:26:14.876Z,0.20
2023-03-26T23:28:41.464Z,0.25
2023-03-26T23:31:10.464Z,0.27
2023-03-26T23:33:39.036Z,1.15
2023-03-26T23:36:10.448Z,0.40
2023-03-26T23:38:43.628Z,0.25
2023-03-26T23:41:15.313Z,0.15
2023-03-26T23:43:54.683Z,0.20
2023-03-26T23:46:30.825Z,0.35
2023-03-26T23:49:04.925Z,0.35
2023-03-26T23:51:32.383Z,0.20
2023-03-26T23:53:59.893Z,0.10
2023-03-26T23:56:29.860Z,0.50
2023-03-26T23:58:56.412Z,0.20
